sensor_id;sensor_type;location;lat;lon;timestamp;P1;durP1;ratioP1;P2;durP2;ratioP2
44410;SDS011;30122;54.734;-1.750;2022-08-06T00:02:49;4.80;;;0.60;;
44410;SDS011;30122;54.734;-1.750;2022-08-06T00:05:51;1.07;;;0.50;;
44410;SDS011;30122;54.734;-1.750;2022-08-06T00:08:53;1.17;;;0.50;;
44410;SDS011;30122;54.734;-1.750;2022-08-06T00:11:57;5.53;;;0.98;;
44410;SDS011;30122;54.734;-1.750;2022-08-06T00:15:01;2.75;;;1.00;;
44410;SDS011;30122;54.734;-1.750;2022-08-06T00:18:14;2.13;;;0.80;;
44410;SDS011;30122;54.734;-1.750;2022-08-06T00:21:16;3.67;;;1.00;;
44410;SDS011;30122;54.734;-1.750;2022-08-06T00:24:37;1.17;;;0.82;;
44410;SDS011;30122;54.734;-1.750;2022-08-06T00:30:43;2.50;;;0.93;;
44410;SDS011;30122;54.734;-1.750;2022-08-06T00:33:44;2.88;;;1.25;;
44410;SDS011;30122;54.734;-1.750;2022-08-06T00:36:57;6.03;;;1.30;;
44410;SDS011;30122;54.734;-1.750;2022-08-06T00:39:59;2.22;;;1.15;;
44410;SDS011;30122;54.734;-1.750;2022-08-06T00:43:01;2.17;;;1.50;;
44410;SDS011;30122;54.734;-1.750;2022-08-06T00:46:09;5.45;;;3.03;;
44410;SDS011;30122;54.734;-1.750;2022-08-06T00:49:16;3.35;;;2.17;;
44410;SDS011;30122;54.734;-1.750;2022-08-06T00:52:39;2.95;;;1.58;;
44410;SDS011;30122;54.734;-1.750;2022-08-06T00:55:41;2.60;;;2.13;;
44410;SDS011;30122;54.734;-1.750;2022-08-06T00:59:03;2.83;;;2.10;;
44410;SDS011;30122;54.734;-1.750;2022-08-06T01:02:11;4.25;;;2.03;;
44410;SDS011;30122;54.734;-1.750;2022-08-06T01:05:15;2.20;;;2.00;;
44410;SDS011;30122;54.734;-1.750;2022-08-06T01:08:37;3.80;;;3.00;;
44410;SDS011;30122;54.734;-1.750;2022-08-06T01:11:42;4.65;;;2.95;;
44410;SDS011;30122;54.734;-1.750;2022-08-06T01:14:44;6.20;;;3.50;;
44410;SDS011;30122;54.734;-1.750;2022-08-06T01:18:10;2.78;;;1.75;;
44410;SDS011;30122;54.734;-1.750;2022-08-06T01:28:56;1.40;;;0.88;;
44410;SDS011;30122;54.734;-1.750;2022-08-06T01:32:04;2.55;;;1.02;;
44410;SDS011;30122;54.734;-1.750;2022-08-06T01:35:12;3.88;;;1.30;;
44410;SDS011;30122;54.734;-1.750;2022-08-06T01:38:39;3.60;;;1.88;;
44410;SDS011;30122;54.734;-1.750;2022-08-06T01:41:57;1.95;;;0.90;;
44410;SDS011;30122;54.734;-1.750;2022-08-06T01:45:00;1.08;;;0.98;;
44410;SDS011;30122;54.734;-1.750;2022-08-06T01:48:03;4.07;;;1.67;;
44410;SDS011;30122;54.734;-1.750;2022-08-06T01:51:08;5.00;;;1.50;;
44410;SDS011;30122;54.734;-1.750;2022-08-06T01:54:30;4.30;;;1.25;;
44410;SDS011;30122;54.734;-1.750;2022-08-06T01:57:49;1.48;;;1.20;;
44410;SDS011;30122;54.734;-1.750;2022-08-06T02:01:12;5.70;;;1.48;;
44410;SDS011;30122;54.734;-1.750;2022-08-06T02:04:21;2.72;;;1.20;;
44410;SDS011;30122;54.734;-1.750;2022-08-06T02:07:29;2.72;;;1.25;;
44410;SDS011;30122;54.734;-1.750;2022-08-06T02:10:52;2.80;;;1.17;;
44410;SDS011;30122;54.734;-1.750;2022-08-06T02:13:55;3.28;;;1.25;;
44410;SDS011;30122;54.734;-1.750;2022-08-06T02:16:59;5.53;;;1.17;;
44410;SDS011;30122;54.734;-1.750;2022-08-06T02:20:15;1.15;;;0.90;;
44410;SDS011;30122;54.734;-1.750;2022-08-06T02:23:38;2.72;;;1.00;;
44410;SDS011;30122;54.734;-1.750;2022-08-06T02:26:45;0.75;;;0.73;;
44410;SDS011;30122;54.734;-1.750;2022-08-06T02:29:50;2.50;;;1.25;;
44410;SDS011;30122;54.734;-1.750;2022-08-06T02:33:07;3.97;;;1.42;;
44410;SDS011;30122;54.734;-1.750;2022-08-06T02:36:15;2.22;;;1.23;;
44410;SDS011;30122;54.734;-1.750;2022-08-06T02:39:28;0.70;;;0.70;;
44410;SDS011;30122;54.734;-1.750;2022-08-06T02:42:58;2.63;;;1.17;;
44410;SDS011;30122;54.734;-1.750;2022-08-06T02:46:13;2.97;;;1.15;;
44410;SDS011;30122;54.734;-1.750;2022-08-06T02:49:20;1.25;;;0.90;;
44410;SDS011;30122;54.734;-1.750;2022-08-06T02:52:37;3.42;;;1.55;;
44410;SDS011;30122;54.734;-1.750;2022-08-06T02:56:00;5.55;;;1.48;;
44410;SDS011;30122;54.734;-1.750;2022-08-06T02:59:05;2.15;;;0.93;;
44410;SDS011;30122;54.734;-1.750;2022-08-06T03:02:09;2.72;;;1.00;;
44410;SDS011;30122;54.734;-1.750;2022-08-06T03:05:17;2.72;;;0.90;;
44410;SDS011;30122;54.734;-1.750;2022-08-06T03:08:40;3.63;;;1.40;;
44410;SDS011;30122;54.734;-1.750;2022-08-06T03:11:42;2.60;;;0.80;;
44410;SDS011;30122;54.734;-1.750;2022-08-06T03:14:48;2.97;;;0.77;;
44410;SDS011;30122;54.734;-1.750;2022-08-06T03:18:11;5.15;;;1.25;;
44410;SDS011;30122;54.734;-1.750;2022-08-06T03:21:16;5.35;;;1.25;;
44410;SDS011;30122;54.734;-1.750;2022-08-06T03:24:24;3.53;;;0.80;;
44410;SDS011;30122;54.734;-1.750;2022-08-06T03:27:27;5.43;;;0.77;;
44410;SDS011;30122;54.734;-1.750;2022-08-06T03:33:34;1.75;;;0.88;;
44410;SDS011;30122;54.734;-1.750;2022-08-06T03:36:54;3.38;;;0.75;;
44410;SDS011;30122;54.734;-1.750;2022-08-06T03:40:00;1.05;;;0.65;;
44410;SDS011;30122;54.734;-1.750;2022-08-06T03:43:05;3.47;;;1.02;;
44410;SDS011;30122;54.734;-1.750;2022-08-06T03:46:08;3.35;;;0.75;;
44410;SDS011;30122;54.734;-1.750;2022-08-06T03:49:16;5.05;;;1.20;;
44410;SDS011;30122;54.734;-1.750;2022-08-06T03:52:28;1.27;;;0.77;;
44410;SDS011;30122;54.734;-1.750;2022-08-06T03:55:32;2.45;;;1.02;;
44410;SDS011;30122;54.734;-1.750;2022-08-06T03:58:37;3.92;;;1.10;;
44410;SDS011;30122;54.734;-1.750;2022-08-06T04:01:41;1.63;;;0.82;;
44410;SDS011;30122;54.734;-1.750;2022-08-06T04:04:51;2.35;;;1.40;;
44410;SDS011;30122;54.734;-1.750;2022-08-06T04:07:54;2.93;;;1.00;;
44410;SDS011;30122;54.734;-1.750;2022-08-06T04:10:58;1.25;;;1.05;;
44410;SDS011;30122;54.734;-1.750;2022-08-06T04:17:08;3.00;;;1.20;;
44410;SDS011;30122;54.734;-1.750;2022-08-06T04:20:13;4.10;;;0.98;;
44410;SDS011;30122;54.734;-1.750;2022-08-06T04:23:16;5.25;;;1.33;;
44410;SDS011;30122;54.734;-1.750;2022-08-06T04:26:38;4.63;;;1.48;;
44410;SDS011;30122;54.734;-1.750;2022-08-06T04:29:41;3.30;;;1.00;;
44410;SDS011;30122;54.734;-1.750;2022-08-06T04:33:02;1.88;;;1.15;;
44410;SDS011;30122;54.734;-1.750;2022-08-06T04:36:09;2.95;;;1.05;;
44410;SDS011;30122;54.734;-1.750;2022-08-06T04:39:25;1.65;;;0.93;;
44410;SDS011;30122;54.734;-1.750;2022-08-06T04:42:48;2.67;;;1.30;;
44410;SDS011;30122;54.734;-1.750;2022-08-06T04:45:51;2.65;;;1.23;;
44410;SDS011;30122;54.734;-1.750;2022-08-06T04:49:14;3.83;;;0.90;;
44410;SDS011;30122;54.734;-1.750;2022-08-06T04:52:22;2.33;;;1.00;;
44410;SDS011;30122;54.734;-1.750;2022-08-06T04:55:45;4.03;;;1.70;;
44410;SDS011;30122;54.734;-1.750;2022-08-06T04:59:04;1.75;;;0.95;;
44410;SDS011;30122;54.734;-1.750;2022-08-06T05:02:08;3.33;;;1.67;;
44410;SDS011;30122;54.734;-1.750;2022-08-06T05:05:12;3.88;;;1.20;;
44410;SDS011;30122;54.734;-1.750;2022-08-06T05:08:16;3.00;;;1.15;;
44410;SDS011;30122;54.734;-1.750;2022-08-06T05:11:31;3.55;;;1.35;;
44410;SDS011;30122;54.734;-1.750;2022-08-06T05:15:40;3.08;;;1.23;;
44410;SDS011;30122;54.734;-1.750;2022-08-06T05:18:25;2.80;;;1.00;;
44410;SDS011;30122;54.734;-1.750;2022-08-06T05:21:48;2.92;;;1.02;;
44410;SDS011;30122;54.734;-1.750;2022-08-06T05:28:23;2.15;;;0.95;;
44410;SDS011;30122;54.734;-1.750;2022-08-06T05:31:29;4.32;;;1.35;;
44410;SDS011;30122;54.734;-1.750;2022-08-06T05:34:40;7.38;;;2.13;;
44410;SDS011;30122;54.734;-1.750;2022-08-06T05:37:52;2.78;;;1.30;;
44410;SDS011;30122;54.734;-1.750;2022-08-06T05:41:05;6.70;;;1.17;;
44410;SDS011;30122;54.734;-1.750;2022-08-06T05:44:08;3.05;;;1.10;;
44410;SDS011;30122;54.734;-1.750;2022-08-06T05:47:12;2.73;;;0.90;;
44410;SDS011;30122;54.734;-1.750;2022-08-06T05:50:17;3.17;;;1.40;;
44410;SDS011;30122;54.734;-1.750;2022-08-06T05:53:30;2.50;;;1.00;;
44410;SDS011;30122;54.734;-1.750;2022-08-06T05:56:58;2.78;;;1.00;;
44410;SDS011;30122;54.734;-1.750;2022-08-06T06:00:15;4.38;;;1.42;;
44410;SDS011;30122;54.734;-1.750;2022-08-06T06:06:40;4.15;;;1.50;;
44410;SDS011;30122;54.734;-1.750;2022-08-06T06:09:43;3.83;;;1.10;;
44410;SDS011;30122;54.734;-1.750;2022-08-06T06:13:04;6.93;;;0.95;;
44410;SDS011;30122;54.734;-1.750;2022-08-06T06:23:56;4.22;;;1.00;;
44410;SDS011;30122;54.734;-1.750;2022-08-06T06:27:11;1.60;;;0.73;;
44410;SDS011;30122;54.734;-1.750;2022-08-06T06:30:48;1.30;;;0.70;;
44410;SDS011;30122;54.734;-1.750;2022-08-06T06:37:01;5.28;;;0.93;;
44410;SDS011;30122;54.734;-1.750;2022-08-06T06:43:37;3.47;;;1.05;;
44410;SDS011;30122;54.734;-1.750;2022-08-06T06:46:53;5.18;;;1.52;;
44410;SDS011;30122;54.734;-1.750;2022-08-06T06:50:02;3.00;;;0.73;;
44410;SDS011;30122;54.734;-1.750;2022-08-06T06:53:12;2.83;;;0.73;;
44410;SDS011;30122;54.734;-1.750;2022-08-06T06:56:16;2.58;;;1.05;;
44410;SDS011;30122;54.734;-1.750;2022-08-06T06:59:33;4.25;;;0.77;;
44410;SDS011;30122;54.734;-1.750;2022-08-06T07:02:56;2.28;;;1.00;;
44410;SDS011;30122;54.734;-1.750;2022-08-06T07:06:01;3.60;;;0.98;;
44410;SDS011;30122;54.734;-1.750;2022-08-06T07:09:14;5.28;;;0.90;;
44410;SDS011;30122;54.734;-1.750;2022-08-06T07:12:39;4.07;;;0.63;;
44410;SDS011;30122;54.734;-1.750;2022-08-06T07:15:42;3.97;;;1.05;;
44410;SDS011;30122;54.734;-1.750;2022-08-06T07:18:54;1.83;;;0.60;;
44410;SDS011;30122;54.734;-1.750;2022-08-06T07:21:56;3.97;;;0.88;;
44410;SDS011;30122;54.734;-1.750;2022-08-06T07:24:59;7.10;;;1.10;;
44410;SDS011;30122;54.734;-1.750;2022-08-06T07:28:07;3.17;;;0.82;;
44410;SDS011;30122;54.734;-1.750;2022-08-06T07:31:12;3.33;;;0.95;;
44410;SDS011;30122;54.734;-1.750;2022-08-06T07:34:15;1.85;;;0.70;;
44410;SDS011;30122;54.734;-1.750;2022-08-06T07:37:18;1.77;;;0.70;;
44410;SDS011;30122;54.734;-1.750;2022-08-06T07:40:27;2.33;;;0.63;;
44410;SDS011;30122;54.734;-1.750;2022-08-06T07:43:31;5.63;;;0.80;;
44410;SDS011;30122;54.734;-1.750;2022-08-06T07:46:39;2.88;;;0.55;;
44410;SDS011;30122;54.734;-1.750;2022-08-06T07:49:55;4.00;;;0.75;;
44410;SDS011;30122;54.734;-1.750;2022-08-06T07:53:01;2.70;;;0.80;;
44410;SDS011;30122;54.734;-1.750;2022-08-06T07:56:04;1.35;;;0.52;;
44410;SDS011;30122;54.734;-1.750;2022-08-06T07:59:09;3.58;;;0.70;;
44410;SDS011;30122;54.734;-1.750;2022-08-06T08:02:15;2.40;;;0.70;;
44410;SDS011;30122;54.734;-1.750;2022-08-06T08:05:30;1.70;;;0.57;;
44410;SDS011;30122;54.734;-1.750;2022-08-06T08:09:03;4.13;;;0.60;;
44410;SDS011;30122;54.734;-1.750;2022-08-06T08:12:29;2.38;;;1.30;;
44410;SDS011;30122;54.734;-1.750;2022-08-06T08:15:36;4.63;;;0.73;;
44410;SDS011;30122;54.734;-1.750;2022-08-06T08:18:44;3.05;;;0.70;;
44410;SDS011;30122;54.734;-1.750;2022-08-06T08:21:45;2.05;;;0.60;;
44410;SDS011;30122;54.734;-1.750;2022-08-06T08:24:48;4.18;;;0.70;;
44410;SDS011;30122;54.734;-1.750;2022-08-06T08:27:55;4.93;;;0.60;;
44410;SDS011;30122;54.734;-1.750;2022-08-06T08:34:21;2.72;;;0.60;;
44410;SDS011;30122;54.734;-1.750;2022-08-06T08:37:27;3.67;;;0.82;;
44410;SDS011;30122;54.734;-1.750;2022-08-06T08:40:33;5.47;;;0.85;;
44410;SDS011;30122;54.734;-1.750;2022-08-06T08:43:37;4.57;;;0.82;;
44410;SDS011;30122;54.734;-1.750;2022-08-06T08:47:03;3.05;;;0.68;;
44410;SDS011;30122;54.734;-1.750;2022-08-06T08:50:13;1.73;;;0.63;;
44410;SDS011;30122;54.734;-1.750;2022-08-06T08:53:28;3.03;;;0.60;;
44410;SDS011;30122;54.734;-1.750;2022-08-06T08:56:47;7.45;;;0.82;;
44410;SDS011;30122;54.734;-1.750;2022-08-06T09:00:09;1.33;;;0.40;;
44410;SDS011;30122;54.734;-1.750;2022-08-06T09:03:16;3.20;;;0.65;;
44410;SDS011;30122;54.734;-1.750;2022-08-06T09:06:18;6.25;;;0.65;;
44410;SDS011;30122;54.734;-1.750;2022-08-06T09:09:30;4.85;;;0.50;;
44410;SDS011;30122;54.734;-1.750;2022-08-06T09:12:36;2.63;;;0.57;;
44410;SDS011;30122;54.734;-1.750;2022-08-06T09:15:45;1.65;;;0.40;;
44410;SDS011;30122;54.734;-1.750;2022-08-06T09:18:51;3.40;;;0.40;;
44410;SDS011;30122;54.734;-1.750;2022-08-06T09:21:58;2.70;;;0.60;;
44410;SDS011;30122;54.734;-1.750;2022-08-06T09:25:02;2.42;;;0.40;;
44410;SDS011;30122;54.734;-1.750;2022-08-06T09:28:12;4.05;;;0.50;;
44410;SDS011;30122;54.734;-1.750;2022-08-06T09:31:29;0.82;;;0.50;;
44410;SDS011;30122;54.734;-1.750;2022-08-06T09:34:45;3.67;;;0.47;;
44410;SDS011;30122;54.734;-1.750;2022-08-06T09:38:03;4.03;;;0.65;;
44410;SDS011;30122;54.734;-1.750;2022-08-06T09:41:07;0.50;;;0.28;;
44410;SDS011;30122;54.734;-1.750;2022-08-06T09:44:16;5.63;;;0.80;;
44410;SDS011;30122;54.734;-1.750;2022-08-06T09:47:38;1.50;;;0.40;;
44410;SDS011;30122;54.734;-1.750;2022-08-06T09:50:41;2.60;;;0.70;;
44410;SDS011;30122;54.734;-1.750;2022-08-06T09:54:18;2.47;;;0.50;;
44410;SDS011;30122;54.734;-1.750;2022-08-06T09:57:26;2.08;;;0.47;;
44410;SDS011;30122;54.734;-1.750;2022-08-06T10:00:41;2.45;;;0.60;;
44410;SDS011;30122;54.734;-1.750;2022-08-06T10:03:51;2.17;;;0.60;;
44410;SDS011;30122;54.734;-1.750;2022-08-06T10:07:07;2.22;;;0.30;;
44410;SDS011;30122;54.734;-1.750;2022-08-06T10:10:10;5.75;;;1.63;;
44410;SDS011;30122;54.734;-1.750;2022-08-06T10:13:29;2.47;;;0.50;;
44410;SDS011;30122;54.734;-1.750;2022-08-06T10:16:44;1.20;;;0.38;;
44410;SDS011;30122;54.734;-1.750;2022-08-06T10:20:09;3.35;;;0.68;;
44410;SDS011;30122;54.734;-1.750;2022-08-06T10:23:19;1.92;;;0.45;;
44410;SDS011;30122;54.734;-1.750;2022-08-06T10:26:30;1.48;;;0.45;;
44410;SDS011;30122;54.734;-1.750;2022-08-06T10:29:34;0.73;;;0.43;;
44410;SDS011;30122;54.734;-1.750;2022-08-06T10:32:46;2.85;;;0.40;;
44410;SDS011;30122;54.734;-1.750;2022-08-06T10:36:02;1.23;;;0.30;;
44410;SDS011;30122;54.734;-1.750;2022-08-06T10:39:09;0.88;;;0.35;;
44410;SDS011;30122;54.734;-1.750;2022-08-06T10:42:31;1.40;;;0.40;;
44410;SDS011;30122;54.734;-1.750;2022-08-06T10:45:33;3.85;;;0.50;;
44410;SDS011;30122;54.734;-1.750;2022-08-06T10:48:49;2.70;;;0.70;;
44410;SDS011;30122;54.734;-1.750;2022-08-06T10:52:11;0.82;;;0.30;;
44410;SDS011;30122;54.734;-1.750;2022-08-06T10:55:16;4.13;;;0.80;;
44410;SDS011;30122;54.734;-1.750;2022-08-06T10:58:18;4.30;;;1.05;;
44410;SDS011;30122;54.734;-1.750;2022-08-06T11:15:08;4.55;;;0.68;;
44410;SDS011;30122;54.734;-1.750;2022-08-06T11:18:12;3.63;;;0.50;;
44410;SDS011;30122;54.734;-1.750;2022-08-06T11:21:44;1.30;;;0.60;;
44410;SDS011;30122;54.734;-1.750;2022-08-06T11:25:04;1.00;;;0.30;;
44410;SDS011;30122;54.734;-1.750;2022-08-06T11:31:37;1.42;;;0.43;;
44410;SDS011;30122;54.734;-1.750;2022-08-06T11:34:53;1.17;;;0.25;;
44410;SDS011;30122;54.734;-1.750;2022-08-06T11:37:57;0.88;;;0.40;;
44410;SDS011;30122;54.734;-1.750;2022-08-06T11:41:07;3.20;;;0.40;;
44410;SDS011;30122;54.734;-1.750;2022-08-06T11:44:31;0.80;;;0.30;;
44410;SDS011;30122;54.734;-1.750;2022-08-06T11:47:34;2.08;;;1.10;;
44410;SDS011;30122;54.734;-1.750;2022-08-06T11:57:48;2.33;;;0.40;;
44410;SDS011;30122;54.734;-1.750;2022-08-06T12:00:59;1.00;;;0.20;;
44410;SDS011;30122;54.734;-1.750;2022-08-06T12:07:40;1.02;;;0.30;;
44410;SDS011;30122;54.734;-1.750;2022-08-06T12:14:38;1.85;;;0.47;;
44410;SDS011;30122;54.734;-1.750;2022-08-06T12:21:15;5.28;;;0.50;;
44410;SDS011;30122;54.734;-1.750;2022-08-06T12:24:22;1.75;;;0.30;;
44410;SDS011;30122;54.734;-1.750;2022-08-06T12:27:31;2.28;;;0.40;;
44410;SDS011;30122;54.734;-1.750;2022-08-06T12:30:44;2.08;;;0.80;;
44410;SDS011;30122;54.734;-1.750;2022-08-06T12:33:50;1.45;;;0.40;;
44410;SDS011;30122;54.734;-1.750;2022-08-06T12:36:52;2.10;;;0.47;;
44410;SDS011;30122;54.734;-1.750;2022-08-06T12:39:57;0.35;;;0.20;;
44410;SDS011;30122;54.734;-1.750;2022-08-06T12:43:19;1.52;;;0.30;;
44410;SDS011;30122;54.734;-1.750;2022-08-06T12:46:40;0.45;;;0.20;;
44410;SDS011;30122;54.734;-1.750;2022-08-06T12:49:43;2.47;;;0.50;;
44410;SDS011;30122;54.734;-1.750;2022-08-06T12:53:00;3.00;;;0.32;;
44410;SDS011;30122;54.734;-1.750;2022-08-06T12:56:09;2.20;;;0.50;;
44410;SDS011;30122;54.734;-1.750;2022-08-06T12:59:19;0.73;;;0.30;;
44410;SDS011;30122;54.734;-1.750;2022-08-06T13:02:24;1.20;;;0.28;;
44410;SDS011;30122;54.734;-1.750;2022-08-06T13:05:28;0.22;;;0.10;;
44410;SDS011;30122;54.734;-1.750;2022-08-06T13:08:36;1.67;;;0.32;;
44410;SDS011;30122;54.734;-1.750;2022-08-06T13:11:44;2.70;;;0.73;;
44410;SDS011;30122;54.734;-1.750;2022-08-06T13:14:52;1.00;;;0.20;;
44410;SDS011;30122;54.734;-1.750;2022-08-06T13:18:14;1.48;;;0.38;;
44410;SDS011;30122;54.734;-1.750;2022-08-06T13:21:38;0.95;;;0.28;;
44410;SDS011;30122;54.734;-1.750;2022-08-06T13:25:11;1.10;;;0.25;;
44410;SDS011;30122;54.734;-1.750;2022-08-06T13:28:33;1.42;;;0.50;;
44410;SDS011;30122;54.734;-1.750;2022-08-06T13:31:39;2.25;;;0.40;;
44410;SDS011;30122;54.734;-1.750;2022-08-06T13:38:04;1.63;;;0.52;;
44410;SDS011;30122;54.734;-1.750;2022-08-06T13:41:27;0.60;;;0.22;;
44410;SDS011;30122;54.734;-1.750;2022-08-06T13:44:36;1.08;;;0.30;;
44410;SDS011;30122;54.734;-1.750;2022-08-06T13:47:39;1.15;;;0.20;;
44410;SDS011;30122;54.734;-1.750;2022-08-06T13:54:03;1.38;;;0.35;;
44410;SDS011;30122;54.734;-1.750;2022-08-06T13:57:19;0.88;;;0.45;;
44410;SDS011;30122;54.734;-1.750;2022-08-06T14:00:21;1.23;;;0.35;;
44410;SDS011;30122;54.734;-1.750;2022-08-06T14:03:26;4.22;;;0.63;;
44410;SDS011;30122;54.734;-1.750;2022-08-06T14:06:38;1.23;;;0.32;;
44410;SDS011;30122;54.734;-1.750;2022-08-06T14:09:44;1.20;;;0.43;;
44410;SDS011;30122;54.734;-1.750;2022-08-06T14:13:06;1.80;;;0.38;;
44410;SDS011;30122;54.734;-1.750;2022-08-06T14:16:17;1.05;;;0.50;;
44410;SDS011;30122;54.734;-1.750;2022-08-06T14:19:18;0.82;;;0.25;;
44410;SDS011;30122;54.734;-1.750;2022-08-06T14:22:40;2.90;;;0.40;;
44410;SDS011;30122;54.734;-1.750;2022-08-06T14:25:43;1.48;;;0.30;;
44410;SDS011;30122;54.734;-1.750;2022-08-06T14:29:03;3.00;;;0.45;;
44410;SDS011;30122;54.734;-1.750;2022-08-06T14:35:27;1.43;;;0.30;;
44410;SDS011;30122;54.734;-1.750;2022-08-06T14:38:39;1.15;;;0.30;;
44410;SDS011;30122;54.734;-1.750;2022-08-06T14:41:43;2.33;;;0.30;;
44410;SDS011;30122;54.734;-1.750;2022-08-06T14:45:03;1.17;;;0.30;;
44410;SDS011;30122;54.734;-1.750;2022-08-06T14:48:07;0.50;;;0.10;;
44410;SDS011;30122;54.734;-1.750;2022-08-06T14:54:14;0.90;;;0.30;;
44410;SDS011;30122;54.734;-1.750;2022-08-06T14:57:16;0.65;;;0.20;;
44410;SDS011;30122;54.734;-1.750;2022-08-06T15:00:18;1.83;;;0.10;;
44410;SDS011;30122;54.734;-1.750;2022-08-06T15:03:22;2.30;;;0.47;;
44410;SDS011;30122;54.734;-1.750;2022-08-06T15:06:33;0.70;;;0.20;;
44410;SDS011;30122;54.734;-1.750;2022-08-06T15:09:54;0.52;;;0.00;;
44410;SDS011;30122;54.734;-1.750;2022-08-06T15:13:16;0.22;;;0.03;;
44410;SDS011;30122;54.734;-1.750;2022-08-06T15:16:20;1.33;;;0.30;;
44410;SDS011;30122;54.734;-1.750;2022-08-06T15:19:41;1.25;;;0.28;;
44410;SDS011;30122;54.734;-1.750;2022-08-06T15:22:51;0.77;;;0.17;;
44410;SDS011;30122;54.734;-1.750;2022-08-06T15:25:53;1.05;;;0.20;;
44410;SDS011;30122;54.734;-1.750;2022-08-06T15:29:15;5.88;;;0.30;;
44410;SDS011;30122;54.734;-1.750;2022-08-06T15:32:17;0.70;;;0.20;;
44410;SDS011;30122;54.734;-1.750;2022-08-06T15:38:31;0.52;;;0.20;;
44410;SDS011;30122;54.734;-1.750;2022-08-06T15:41:33;0.00;;;0.00;;
44410;SDS011;30122;54.734;-1.750;2022-08-06T15:44:35;0.98;;;0.10;;
44410;SDS011;30122;54.734;-1.750;2022-08-06T15:47:42;0.52;;;0.10;;
44410;SDS011;30122;54.734;-1.750;2022-08-06T15:50:47;0.20;;;0.10;;
44410;SDS011;30122;54.734;-1.750;2022-08-06T15:54:09;0.10;;;0.10;;
44410;SDS011;30122;54.734;-1.750;2022-08-06T15:57:11;0.20;;;0.20;;
44410;SDS011;30122;54.734;-1.750;2022-08-06T16:00:18;0.30;;;0.05;;
44410;SDS011;30122;54.734;-1.750;2022-08-06T16:03:23;0.32;;;0.30;;
44410;SDS011;30122;54.734;-1.750;2022-08-06T16:06:28;0.40;;;0.28;;
44410;SDS011;30122;54.734;-1.750;2022-08-06T16:09:29;0.35;;;0.10;;
44410;SDS011;30122;54.734;-1.750;2022-08-06T16:12:51;0.80;;;0.30;;
44410;SDS011;30122;54.734;-1.750;2022-08-06T16:15:53;0.28;;;0.20;;
44410;SDS011;30122;54.734;-1.750;2022-08-06T16:18:55;0.13;;;0.10;;
44410;SDS011;30122;54.734;-1.750;2022-08-06T16:21:58;2.45;;;0.50;;
44410;SDS011;30122;54.734;-1.750;2022-08-06T16:25:00;1.10;;;0.30;;
44410;SDS011;30122;54.734;-1.750;2022-08-06T16:28:04;0.43;;;0.20;;
44410;SDS011;30122;54.734;-1.750;2022-08-06T16:31:06;0.30;;;0.10;;
44410;SDS011;30122;54.734;-1.750;2022-08-06T16:34:16;0.45;;;0.20;;
44410;SDS011;30122;54.734;-1.750;2022-08-06T16:37:30;0.75;;;0.13;;
44410;SDS011;30122;54.734;-1.750;2022-08-06T16:40:37;0.45;;;0.22;;
44410;SDS011;30122;54.734;-1.750;2022-08-06T16:43:48;1.75;;;1.02;;
44410;SDS011;30122;54.734;-1.750;2022-08-06T16:46:54;0.40;;;0.30;;
44410;SDS011;30122;54.734;-1.750;2022-08-06T16:49:58;0.40;;;0.17;;
44410;SDS011;30122;54.734;-1.750;2022-08-06T16:53:20;1.83;;;0.30;;
44410;SDS011;30122;54.734;-1.750;2022-08-06T16:56:42;1.88;;;0.57;;
44410;SDS011;30122;54.734;-1.750;2022-08-06T16:59:46;0.90;;;0.50;;
44410;SDS011;30122;54.734;-1.750;2022-08-06T17:02:48;0.70;;;0.40;;
44410;SDS011;30122;54.734;-1.750;2022-08-06T17:05:50;0.85;;;0.20;;
44410;SDS011;30122;54.734;-1.750;2022-08-06T17:08:53;1.23;;;0.20;;
44410;SDS011;30122;54.734;-1.750;2022-08-06T17:11:55;1.30;;;0.30;;
44410;SDS011;30122;54.734;-1.750;2022-08-06T17:15:17;2.03;;;0.50;;
44410;SDS011;30122;54.734;-1.750;2022-08-06T17:18:39;1.75;;;0.50;;
44410;SDS011;30122;54.734;-1.750;2022-08-06T17:22:00;1.55;;;0.63;;
44410;SDS011;30122;54.734;-1.750;2022-08-06T17:25:04;1.50;;;0.50;;
44410;SDS011;30122;54.734;-1.750;2022-08-06T17:28:21;2.42;;;0.20;;
44410;SDS011;30122;54.734;-1.750;2022-08-06T17:31:30;1.88;;;0.70;;
44410;SDS011;30122;54.734;-1.750;2022-08-06T17:34:52;2.10;;;0.40;;
44410;SDS011;30122;54.734;-1.750;2022-08-06T17:37:55;1.30;;;0.57;;
44410;SDS011;30122;54.734;-1.750;2022-08-06T17:41:00;1.73;;;0.73;;
44410;SDS011;30122;54.734;-1.750;2022-08-06T17:44:11;1.55;;;0.35;;
44410;SDS011;30122;54.734;-1.750;2022-08-06T17:47:18;2.10;;;0.40;;
44410;SDS011;30122;54.734;-1.750;2022-08-06T17:50:20;1.10;;;0.30;;
44410;SDS011;30122;54.734;-1.750;2022-08-06T17:53:41;2.10;;;0.47;;
44410;SDS011;30122;54.734;-1.750;2022-08-06T17:56:54;1.23;;;0.45;;
44410;SDS011;30122;54.734;-1.750;2022-08-06T18:00:00;1.27;;;0.65;;
44410;SDS011;30122;54.734;-1.750;2022-08-06T18:03:12;4.97;;;1.40;;
44410;SDS011;30122;54.734;-1.750;2022-08-06T18:06:34;3.10;;;0.77;;
44410;SDS011;30122;54.734;-1.750;2022-08-06T18:09:37;5.45;;;1.60;;
44410;SDS011;30122;54.734;-1.750;2022-08-06T18:13:00;3.15;;;1.05;;
44410;SDS011;30122;54.734;-1.750;2022-08-06T18:16:02;0.43;;;0.30;;
44410;SDS011;30122;54.734;-1.750;2022-08-06T18:19:04;1.30;;;0.65;;
44410;SDS011;30122;54.734;-1.750;2022-08-06T18:22:10;2.72;;;0.50;;
44410;SDS011;30122;54.734;-1.750;2022-08-06T18:25:23;1.95;;;0.77;;
44410;SDS011;30122;54.734;-1.750;2022-08-06T18:28:49;5.57;;;1.90;;
44410;SDS011;30122;54.734;-1.750;2022-08-06T18:31:51;1.02;;;0.50;;
44410;SDS011;30122;54.734;-1.750;2022-08-06T18:35:03;1.48;;;0.73;;
44410;SDS011;30122;54.734;-1.750;2022-08-06T18:38:06;1.75;;;0.35;;
44410;SDS011;30122;54.734;-1.750;2022-08-06T18:44:16;0.93;;;0.47;;
44410;SDS011;30122;54.734;-1.750;2022-08-06T18:47:19;1.63;;;0.85;;
44410;SDS011;30122;54.734;-1.750;2022-08-06T18:50:22;2.08;;;1.05;;
44410;SDS011;30122;54.734;-1.750;2022-08-06T18:53:26;4.10;;;1.85;;
44410;SDS011;30122;54.734;-1.750;2022-08-06T18:56:48;2.42;;;0.73;;
44410;SDS011;30122;54.734;-1.750;2022-08-06T18:59:50;3.40;;;1.10;;
44410;SDS011;30122;54.734;-1.750;2022-08-06T19:02:54;0.75;;;0.45;;
44410;SDS011;30122;54.734;-1.750;2022-08-06T19:05:56;1.38;;;0.50;;
44410;SDS011;30122;54.734;-1.750;2022-08-06T19:08:58;1.38;;;0.70;;
44410;SDS011;30122;54.734;-1.750;2022-08-06T19:12:02;3.60;;;0.77;;
44410;SDS011;30122;54.734;-1.750;2022-08-06T19:15:13;1.23;;;0.65;;
44410;SDS011;30122;54.734;-1.750;2022-08-06T19:18:20;2.42;;;0.90;;
44410;SDS011;30122;54.734;-1.750;2022-08-06T19:21:26;4.63;;;0.85;;
44410;SDS011;30122;54.734;-1.750;2022-08-06T19:24:28;2.90;;;1.10;;
44410;SDS011;30122;54.734;-1.750;2022-08-06T19:27:37;3.30;;;1.10;;
44410;SDS011;30122;54.734;-1.750;2022-08-06T19:31:00;1.98;;;0.60;;
44410;SDS011;30122;54.734;-1.750;2022-08-06T19:34:05;1.58;;;0.70;;
44410;SDS011;30122;54.734;-1.750;2022-08-06T19:37:09;2.30;;;0.73;;
44410;SDS011;30122;54.734;-1.750;2022-08-06T19:40:31;0.88;;;0.55;;
44410;SDS011;30122;54.734;-1.750;2022-08-06T19:43:53;2.97;;;0.68;;
44410;SDS011;30122;54.734;-1.750;2022-08-06T19:47:14;1.77;;;0.43;;
44410;SDS011;30122;54.734;-1.750;2022-08-06T19:50:22;0.70;;;0.57;;
44410;SDS011;30122;54.734;-1.750;2022-08-06T19:53:28;3.63;;;0.70;;
44410;SDS011;30122;54.734;-1.750;2022-08-06T19:56:32;3.13;;;1.08;;
44410;SDS011;30122;54.734;-1.750;2022-08-06T19:59:34;1.13;;;0.43;;
44410;SDS011;30122;54.734;-1.750;2022-08-06T20:02:57;0.93;;;0.68;;
44410;SDS011;30122;54.734;-1.750;2022-08-06T20:06:01;4.05;;;0.98;;
44410;SDS011;30122;54.734;-1.750;2022-08-06T20:09:23;0.93;;;0.47;;
44410;SDS011;30122;54.734;-1.750;2022-08-06T20:12:49;1.25;;;0.75;;
44410;SDS011;30122;54.734;-1.750;2022-08-06T20:15:51;0.47;;;0.30;;
44410;SDS011;30122;54.734;-1.750;2022-08-06T20:18:53;1.20;;;0.50;;
44410;SDS011;30122;54.734;-1.750;2022-08-06T20:24:58;3.10;;;0.70;;
44410;SDS011;30122;54.734;-1.750;2022-08-06T20:28:18;2.63;;;1.33;;